sensor_id;sensor_type;location;lat;lon;timestamp;P1;durP1;ratioP1;P2;durP2;ratioP2
11699;SDS011;5906;51.660;6.674;2022-12-08T00:00:18;15.87;;;11.97;;
11699;SDS011;5906;51.660;6.674;2022-12-08T00:03:06;18.83;;;12.80;;
11699;SDS011;5906;51.660;6.674;2022-12-08T00:05:53;14.90;;;12.83;;
11699;SDS011;5906;51.660;6.674;2022-12-08T00:08:59;13.80;;;10.50;;
11699;SDS011;5906;51.660;6.674;2022-12-08T00:15:01;14.13;;;11.20;;
11699;SDS011;5906;51.660;6.674;2022-12-08T00:17:49;15.50;;;13.37;;
11699;SDS011;5906;51.660;6.674;2022-12-08T00:20:36;17.07;;;12.63;;
11699;SDS011;5906;51.660;6.674;2022-12-08T00:23:23;11.30;;;10.13;;
11699;SDS011;5906;51.660;6.674;2022-12-08T00:26:11;15.23;;;11.90;;
11699;SDS011;5906;51.660;6.674;2022-12-08T00:28:58;13.23;;;11.73;;
11699;SDS011;5906;51.660;6.674;2022-12-08T00:31:45;12.10;;;10.10;;
11699;SDS011;5906;51.660;6.674;2022-12-08T00:34:33;15.50;;;12.43;;
11699;SDS011;5906;51.660;6.674;2022-12-08T00:37:21;13.40;;;10.20;;
11699;SDS011;5906;51.660;6.674;2022-12-08T00:40:08;12.50;;;10.70;;
11699;SDS011;5906;51.660;6.674;2022-12-08T00:42:55;12.87;;;11.10;;
11699;SDS011;5906;51.660;6.674;2022-12-08T00:45:42;13.53;;;11.63;;
11699;SDS011;5906;51.660;6.674;2022-12-08T00:48:30;13.70;;;10.80;;
11699;SDS011;5906;51.660;6.674;2022-12-08T00:51:17;15.13;;;10.20;;
11699;SDS011;5906;51.660;6.674;2022-12-08T00:54:05;12.83;;;11.13;;
11699;SDS011;5906;51.660;6.674;2022-12-08T00:56:52;14.63;;;10.73;;
11699;SDS011;5906;51.660;6.674;2022-12-08T00:59:40;12.30;;;11.00;;
11699;SDS011;5906;51.660;6.674;2022-12-08T01:02:27;18.83;;;11.20;;
11699;SDS011;5906;51.660;6.674;2022-12-08T01:05:14;14.43;;;12.77;;
11699;SDS011;5906;51.660;6.674;2022-12-08T01:08:04;19.27;;;12.13;;
11699;SDS011;5906;51.660;6.674;2022-12-08T01:10:52;17.43;;;13.10;;
11699;SDS011;5906;51.660;6.674;2022-12-08T01:13:39;13.67;;;11.13;;
11699;SDS011;5906;51.660;6.674;2022-12-08T01:16:28;17.80;;;12.63;;
11699;SDS011;5906;51.660;6.674;2022-12-08T01:19:17;18.23;;;14.23;;
11699;SDS011;5906;51.660;6.674;2022-12-08T01:22:05;18.87;;;15.40;;
11699;SDS011;5906;51.660;6.674;2022-12-08T01:24:52;17.97;;;13.10;;
11699;SDS011;5906;51.660;6.674;2022-12-08T01:27:39;18.83;;;13.80;;
11699;SDS011;5906;51.660;6.674;2022-12-08T01:30:26;18.70;;;13.93;;
11699;SDS011;5906;51.660;6.674;2022-12-08T01:33:14;22.60;;;14.70;;
11699;SDS011;5906;51.660;6.674;2022-12-08T01:36:02;22.47;;;15.37;;
11699;SDS011;5906;51.660;6.674;2022-12-08T01:38:51;20.07;;;16.40;;
11699;SDS011;5906;51.660;6.674;2022-12-08T01:41:40;25.43;;;16.47;;
11699;SDS011;5906;51.660;6.674;2022-12-08T01:47:16;23.10;;;17.70;;
11699;SDS011;5906;51.660;6.674;2022-12-08T01:50:04;30.30;;;19.40;;
11699;SDS011;5906;51.660;6.674;2022-12-08T01:52:55;35.67;;;19.77;;
11699;SDS011;5906;51.660;6.674;2022-12-08T01:55:51;33.90;;;21.03;;
11699;SDS011;5906;51.660;6.674;2022-12-08T01:58:42;33.13;;;21.60;;
11699;SDS011;5906;51.660;6.674;2022-12-08T02:01:33;34.77;;;21.93;;
11699;SDS011;5906;51.660;6.674;2022-12-08T02:04:20;35.93;;;22.30;;
11699;SDS011;5906;51.660;6.674;2022-12-08T02:07:07;40.17;;;23.40;;
11699;SDS011;5906;51.660;6.674;2022-12-08T02:09:57;36.07;;;23.93;;
11699;SDS011;5906;51.660;6.674;2022-12-08T02:12:44;34.33;;;21.00;;
11699;SDS011;5906;51.660;6.674;2022-12-08T02:22:31;36.10;;;22.53;;
11699;SDS011;5906;51.660;6.674;2022-12-08T02:25:48;39.90;;;24.07;;
11699;SDS011;5906;51.660;6.674;2022-12-08T02:32:31;41.27;;;24.30;;
11699;SDS011;5906;51.660;6.674;2022-12-08T02:44:22;41.27;;;25.43;;
11699;SDS011;5906;51.660;6.674;2022-12-08T02:47:20;43.07;;;26.30;;
11699;SDS011;5906;51.660;6.674;2022-12-08T02:50:10;43.97;;;26.03;;
11699;SDS011;5906;51.660;6.674;2022-12-08T02:52:58;51.00;;;27.57;;
11699;SDS011;5906;51.660;6.674;2022-12-08T02:58:56;44.40;;;26.80;;
11699;SDS011;5906;51.660;6.674;2022-12-08T03:04:49;48.67;;;25.70;;
11699;SDS011;5906;51.660;6.674;2022-12-08T03:07:48;47.83;;;27.07;;
11699;SDS011;5906;51.660;6.674;2022-12-08T03:10:50;46.63;;;25.53;;
11699;SDS011;5906;51.660;6.674;2022-12-08T03:13:50;51.43;;;27.30;;
11699;SDS011;5906;51.660;6.674;2022-12-08T03:16:40;48.33;;;27.70;;
11699;SDS011;5906;51.660;6.674;2022-12-08T03:19:32;42.60;;;25.33;;
11699;SDS011;5906;51.660;6.674;2022-12-08T03:22:23;44.57;;;26.17;;
11699;SDS011;5906;51.660;6.674;2022-12-08T03:25:13;41.80;;;24.50;;
11699;SDS011;5906;51.660;6.674;2022-12-08T03:28:03;44.30;;;26.63;;
11699;SDS011;5906;51.660;6.674;2022-12-08T03:30:52;51.47;;;28.73;;
11699;SDS011;5906;51.660;6.674;2022-12-08T03:33:43;47.33;;;26.13;;
11699;SDS011;5906;51.660;6.674;2022-12-08T03:36:33;42.00;;;25.77;;
11699;SDS011;5906;51.660;6.674;2022-12-08T03:39:20;48.27;;;25.67;;
11699;SDS011;5906;51.660;6.674;2022-12-08T03:42:07;51.93;;;29.23;;
11699;SDS011;5906;51.660;6.674;2022-12-08T03:44:55;41.20;;;23.97;;
11699;SDS011;5906;51.660;6.674;2022-12-08T03:47:42;45.57;;;25.67;;
11699;SDS011;5906;51.660;6.674;2022-12-08T03:50:29;50.03;;;26.90;;
11699;SDS011;5906;51.660;6.674;2022-12-08T03:53:16;42.37;;;24.27;;
11699;SDS011;5906;51.660;6.674;2022-12-08T03:56:04;47.70;;;27.50;;
11699;SDS011;5906;51.660;6.674;2022-12-08T03:59:10;48.90;;;25.13;;
11699;SDS011;5906;51.660;6.674;2022-12-08T04:01:57;40.50;;;23.67;;
11699;SDS011;5906;51.660;6.674;2022-12-08T04:04:45;45.97;;;24.90;;
11699;SDS011;5906;51.660;6.674;2022-12-08T04:07:35;50.20;;;25.73;;
11699;SDS011;5906;51.660;6.674;2022-12-08T04:10:22;44.93;;;25.50;;
11699;SDS011;5906;51.660;6.674;2022-12-08T04:13:09;46.53;;;26.67;;
11699;SDS011;5906;51.660;6.674;2022-12-08T04:15:57;42.17;;;22.40;;
11699;SDS011;5906;51.660;6.674;2022-12-08T04:18:44;48.20;;;26.87;;
11699;SDS011;5906;51.660;6.674;2022-12-08T04:21:32;46.80;;;26.23;;
11699;SDS011;5906;51.660;6.674;2022-12-08T04:24:19;46.07;;;24.57;;
11699;SDS011;5906;51.660;6.674;2022-12-08T04:27:06;46.07;;;26.13;;
11699;SDS011;5906;51.660;6.674;2022-12-08T04:29:54;48.87;;;27.70;;
11699;SDS011;5906;51.660;6.674;2022-12-08T04:32:41;52.87;;;26.60;;
11699;SDS011;5906;51.660;6.674;2022-12-08T04:35:33;45.43;;;25.80;;
11699;SDS011;5906;51.660;6.674;2022-12-08T04:38:19;44.30;;;25.37;;
11699;SDS011;5906;51.660;6.674;2022-12-08T04:41:07;50.27;;;27.33;;
11699;SDS011;5906;51.660;6.674;2022-12-08T04:43:54;49.87;;;26.23;;
11699;SDS011;5906;51.660;6.674;2022-12-08T04:46:41;47.53;;;25.77;;
11699;SDS011;5906;51.660;6.674;2022-12-08T04:49:29;44.90;;;25.90;;
11699;SDS011;5906;51.660;6.674;2022-12-08T04:52:16;48.60;;;26.13;;
11699;SDS011;5906;51.660;6.674;2022-12-08T04:55:03;43.93;;;24.63;;
11699;SDS011;5906;51.660;6.674;2022-12-08T04:57:51;42.73;;;25.40;;
11699;SDS011;5906;51.660;6.674;2022-12-08T05:00:38;46.37;;;26.13;;
11699;SDS011;5906;51.660;6.674;2022-12-08T05:03:25;42.10;;;24.17;;
11699;SDS011;5906;51.660;6.674;2022-12-08T05:06:14;40.83;;;22.00;;
11699;SDS011;5906;51.660;6.674;2022-12-08T05:09:01;40.37;;;23.70;;
11699;SDS011;5906;51.660;6.674;2022-12-08T05:11:48;44.23;;;25.07;;
11699;SDS011;5906;51.660;6.674;2022-12-08T05:14:36;37.70;;;22.00;;
11699;SDS011;5906;51.660;6.674;2022-12-08T05:17:23;39.50;;;22.70;;
11699;SDS011;5906;51.660;6.674;2022-12-08T05:20:10;33.07;;;20.37;;
11699;SDS011;5906;51.660;6.674;2022-12-08T05:22:57;31.73;;;19.13;;
11699;SDS011;5906;51.660;6.674;2022-12-08T05:25:45;29.60;;;18.83;;
11699;SDS011;5906;51.660;6.674;2022-12-08T05:28:32;32.13;;;19.83;;
11699;SDS011;5906;51.660;6.674;2022-12-08T05:31:29;31.37;;;18.20;;
11699;SDS011;5906;51.660;6.674;2022-12-08T05:34:16;22.67;;;14.73;;
11699;SDS011;5906;51.660;6.674;2022-12-08T05:37:03;25.37;;;15.83;;
11699;SDS011;5906;51.660;6.674;2022-12-08T05:39:50;21.63;;;14.13;;
11699;SDS011;5906;51.660;6.674;2022-12-08T05:42:37;20.73;;;13.50;;
11699;SDS011;5906;51.660;6.674;2022-12-08T05:45:24;17.73;;;11.97;;
11699;SDS011;5906;51.660;6.674;2022-12-08T05:48:11;18.33;;;11.20;;
11699;SDS011;5906;51.660;6.674;2022-12-08T05:50:58;16.60;;;11.90;;
11699;SDS011;5906;51.660;6.674;2022-12-08T05:53:47;17.87;;;12.43;;
11699;SDS011;5906;51.660;6.674;2022-12-08T05:56:35;14.77;;;11.30;;
11699;SDS011;5906;51.660;6.674;2022-12-08T05:59:22;14.57;;;11.50;;
11699;SDS011;5906;51.660;6.674;2022-12-08T06:02:09;13.67;;;9.83;;
11699;SDS011;5906;51.660;6.674;2022-12-08T06:04:57;14.17;;;10.77;;
11699;SDS011;5906;51.660;6.674;2022-12-08T06:07:44;15.67;;;11.00;;
11699;SDS011;5906;51.660;6.674;2022-12-08T06:10:32;16.03;;;10.50;;
11699;SDS011;5906;51.660;6.674;2022-12-08T06:13:19;12.00;;;8.80;;
11699;SDS011;5906;51.660;6.674;2022-12-08T06:16:06;16.10;;;10.63;;
11699;SDS011;5906;51.660;6.674;2022-12-08T06:18:54;13.37;;;10.30;;
11699;SDS011;5906;51.660;6.674;2022-12-08T06:21:42;13.20;;;10.20;;
11699;SDS011;5906;51.660;6.674;2022-12-08T06:24:29;13.83;;;11.00;;
11699;SDS011;5906;51.660;6.674;2022-12-08T06:27:17;15.40;;;10.70;;
11699;SDS011;5906;51.660;6.674;2022-12-08T06:30:04;15.83;;;10.10;;
11699;SDS011;5906;51.660;6.674;2022-12-08T06:32:53;16.63;;;10.63;;
11699;SDS011;5906;51.660;6.674;2022-12-08T06:35:40;18.97;;;13.20;;
11699;SDS011;5906;51.660;6.674;2022-12-08T06:38:27;16.23;;;12.67;;
11699;SDS011;5906;51.660;6.674;2022-12-08T06:41:14;15.67;;;11.77;;
11699;SDS011;5906;51.660;6.674;2022-12-08T06:44:02;15.40;;;10.87;;
11699;SDS011;5906;51.660;6.674;2022-12-08T06:46:49;15.07;;;10.90;;
11699;SDS011;5906;51.660;6.674;2022-12-08T06:49:36;15.93;;;10.67;;
11699;SDS011;5906;51.660;6.674;2022-12-08T06:52:23;16.30;;;10.13;;
11699;SDS011;5906;51.660;6.674;2022-12-08T06:55:11;13.67;;;9.77;;
11699;SDS011;5906;51.660;6.674;2022-12-08T06:58:18;14.97;;;10.67;;
11699;SDS011;5906;51.660;6.674;2022-12-08T07:01:07;11.73;;;9.30;;
11699;SDS011;5906;51.660;6.674;2022-12-08T07:03:55;13.20;;;8.93;;
11699;SDS011;5906;51.660;6.674;2022-12-08T07:06:42;14.77;;;10.20;;
11699;SDS011;5906;51.660;6.674;2022-12-08T07:09:30;15.27;;;10.80;;
11699;SDS011;5906;51.660;6.674;2022-12-08T07:12:17;15.83;;;10.03;;
11699;SDS011;5906;51.660;6.674;2022-12-08T07:15:04;17.63;;;11.40;;
11699;SDS011;5906;51.660;6.674;2022-12-08T07:17:52;14.30;;;10.43;;
11699;SDS011;5906;51.660;6.674;2022-12-08T07:20:45;15.60;;;10.87;;
11699;SDS011;5906;51.660;6.674;2022-12-08T07:23:32;18.63;;;12.37;;
11699;SDS011;5906;51.660;6.674;2022-12-08T07:26:20;19.20;;;13.70;;
11699;SDS011;5906;51.660;6.674;2022-12-08T07:29:08;24.00;;;14.50;;
11699;SDS011;5906;51.660;6.674;2022-12-08T07:31:56;28.13;;;14.37;;
11699;SDS011;5906;51.660;6.674;2022-12-08T07:34:43;20.87;;;14.07;;
11699;SDS011;5906;51.660;6.674;2022-12-08T07:37:33;21.97;;;14.83;;
11699;SDS011;5906;51.660;6.674;2022-12-08T07:40:21;21.50;;;14.23;;
11699;SDS011;5906;51.660;6.674;2022-12-08T07:43:08;23.27;;;14.30;;
11699;SDS011;5906;51.660;6.674;2022-12-08T07:45:55;19.63;;;13.03;;
11699;SDS011;5906;51.660;6.674;2022-12-08T07:48:43;24.57;;;15.07;;
11699;SDS011;5906;51.660;6.674;2022-12-08T07:51:30;18.53;;;12.63;;
11699;SDS011;5906;51.660;6.674;2022-12-08T07:54:17;22.27;;;13.00;;
11699;SDS011;5906;51.660;6.674;2022-12-08T07:57:04;17.60;;;12.20;;
11699;SDS011;5906;51.660;6.674;2022-12-08T07:59:52;17.43;;;11.00;;
11699;SDS011;5906;51.660;6.674;2022-12-08T08:02:39;14.63;;;10.60;;
11699;SDS011;5906;51.660;6.674;2022-12-08T08:05:27;18.53;;;10.90;;
11699;SDS011;5906;51.660;6.674;2022-12-08T08:08:15;15.87;;;10.70;;
11699;SDS011;5906;51.660;6.674;2022-12-08T08:11:06;17.17;;;13.47;;
11699;SDS011;5906;51.660;6.674;2022-12-08T08:14:04;19.17;;;13.20;;
11699;SDS011;5906;51.660;6.674;2022-12-08T08:16:52;15.40;;;10.80;;
11699;SDS011;5906;51.660;6.674;2022-12-08T08:19:39;17.03;;;11.23;;
11699;SDS011;5906;51.660;6.674;2022-12-08T08:22:26;16.47;;;11.60;;
11699;SDS011;5906;51.660;6.674;2022-12-08T08:25:15;15.93;;;11.03;;
11699;SDS011;5906;51.660;6.674;2022-12-08T08:28:04;13.97;;;11.10;;
11699;SDS011;5906;51.660;6.674;2022-12-08T08:30:51;16.40;;;11.43;;
11699;SDS011;5906;51.660;6.674;2022-12-08T08:33:38;15.93;;;11.53;;
11699;SDS011;5906;51.660;6.674;2022-12-08T08:36:26;13.07;;;10.77;;
11699;SDS011;5906;51.660;6.674;2022-12-08T08:39:13;17.60;;;12.20;;
11699;SDS011;5906;51.660;6.674;2022-12-08T08:42:00;14.93;;;11.50;;
11699;SDS011;5906;51.660;6.674;2022-12-08T08:44:48;19.63;;;12.20;;
11699;SDS011;5906;51.660;6.674;2022-12-08T08:47:35;19.60;;;12.30;;
11699;SDS011;5906;51.660;6.674;2022-12-08T08:50:23;14.60;;;10.83;;
11699;SDS011;5906;51.660;6.674;2022-12-08T08:53:11;17.43;;;13.20;;
11699;SDS011;5906;51.660;6.674;2022-12-08T08:55:58;16.07;;;12.37;;
11699;SDS011;5906;51.660;6.674;2022-12-08T08:58:48;13.67;;;10.37;;
11699;SDS011;5906;51.660;6.674;2022-12-08T09:01:37;13.60;;;10.57;;
11699;SDS011;5906;51.660;6.674;2022-12-08T09:04:24;14.20;;;11.57;;
11699;SDS011;5906;51.660;6.674;2022-12-08T09:07:12;12.73;;;10.13;;
11699;SDS011;5906;51.660;6.674;2022-12-08T09:09:59;9.50;;;8.50;;
11699;SDS011;5906;51.660;6.674;2022-12-08T09:12:48;10.47;;;8.97;;
11699;SDS011;5906;51.660;6.674;2022-12-08T09:15:35;9.40;;;7.90;;
11699;SDS011;5906;51.660;6.674;2022-12-08T09:18:24;10.27;;;8.87;;
11699;SDS011;5906;51.660;6.674;2022-12-08T09:21:12;10.20;;;9.10;;
11699;SDS011;5906;51.660;6.674;2022-12-08T09:24:02;10.40;;;8.27;;
11699;SDS011;5906;51.660;6.674;2022-12-08T09:26:49;9.67;;;8.47;;
11699;SDS011;5906;51.660;6.674;2022-12-08T09:29:36;14.80;;;10.40;;
11699;SDS011;5906;51.660;6.674;2022-12-08T09:32:24;9.83;;;8.60;;
11699;SDS011;5906;51.660;6.674;2022-12-08T09:35:11;11.50;;;9.20;;
11699;SDS011;5906;51.660;6.674;2022-12-08T09:37:58;10.13;;;8.63;;
11699;SDS011;5906;51.660;6.674;2022-12-08T09:40:52;13.07;;;9.70;;
11699;SDS011;5906;51.660;6.674;2022-12-08T09:46:39;19.40;;;10.47;;
11699;SDS011;5906;51.660;6.674;2022-12-08T09:49:48;20.53;;;10.90;;
11699;SDS011;5906;51.660;6.674;2022-12-08T09:53:05;13.20;;;10.47;;
11699;SDS011;5906;51.660;6.674;2022-12-08T09:56:21;13.53;;;9.17;;
11699;SDS011;5906;51.660;6.674;2022-12-08T09:59:16;16.13;;;10.40;;
11699;SDS011;5906;51.660;6.674;2022-12-08T10:02:20;12.90;;;9.63;;
11699;SDS011;5906;51.660;6.674;2022-12-08T10:05:12;13.20;;;10.10;;
11699;SDS011;5906;51.660;6.674;2022-12-08T10:11:28;12.47;;;10.07;;
11699;SDS011;5906;51.660;6.674;2022-12-08T10:17:37;12.07;;;9.80;;
11699;SDS011;5906;51.660;6.674;2022-12-08T10:20:34;11.10;;;9.77;;
11699;SDS011;5906;51.660;6.674;2022-12-08T10:23:32;11.03;;;9.33;;
11699;SDS011;5906;51.660;6.674;2022-12-08T10:26:21;10.50;;;9.00;;
11699;SDS011;5906;51.660;6.674;2022-12-08T10:29:11;10.67;;;9.37;;
11699;SDS011;5906;51.660;6.674;2022-12-08T10:31:59;15.63;;;11.93;;
11699;SDS011;5906;51.660;6.674;2022-12-08T10:35:01;12.90;;;9.87;;
11699;SDS011;5906;51.660;6.674;2022-12-08T10:37:57;11.50;;;10.30;;
11699;SDS011;5906;51.660;6.674;2022-12-08T10:40:46;10.40;;;9.17;;
11699;SDS011;5906;51.660;6.674;2022-12-08T10:43:35;9.57;;;8.23;;
11699;SDS011;5906;51.660;6.674;2022-12-08T10:46:28;10.33;;;8.80;;
11699;SDS011;5906;51.660;6.674;2022-12-08T10:49:16;10.53;;;8.80;;
11699;SDS011;5906;51.660;6.674;2022-12-08T10:52:26;9.80;;;8.80;;
11699;SDS011;5906;51.660;6.674;2022-12-08T10:55:15;11.57;;;9.13;;
11699;SDS011;5906;51.660;6.674;2022-12-08T10:58:04;11.00;;;8.10;;
11699;SDS011;5906;51.660;6.674;2022-12-08T11:01:19;9.63;;;8.63;;
11699;SDS011;5906;51.660;6.674;2022-12-08T11:04:17;11.93;;;10.20;;
11699;SDS011;5906;51.660;6.674;2022-12-08T11:07:22;11.70;;;9.90;;
11699;SDS011;5906;51.660;6.674;2022-12-08T11:10:14;11.60;;;9.73;;
11699;SDS011;5906;51.660;6.674;2022-12-08T11:13:05;13.80;;;10.47;;
11699;SDS011;5906;51.660;6.674;2022-12-08T11:16:07;11.30;;;10.10;;
11699;SDS011;5906;51.660;6.674;2022-12-08T11:19:00;12.23;;;10.47;;
11699;SDS011;5906;51.660;6.674;2022-12-08T11:21:54;14.80;;;10.63;;
11699;SDS011;5906;51.660;6.674;2022-12-08T11:24:41;13.43;;;10.23;;
11699;SDS011;5906;51.660;6.674;2022-12-08T11:27:28;12.20;;;10.27;;
11699;SDS011;5906;51.660;6.674;2022-12-08T11:30:19;13.57;;;11.10;;
11699;SDS011;5906;51.660;6.674;2022-12-08T11:33:12;13.47;;;10.90;;
11699;SDS011;5906;51.660;6.674;2022-12-08T11:36:08;14.77;;;10.70;;
11699;SDS011;5906;51.660;6.674;2022-12-08T11:39:01;14.00;;;10.70;;
11699;SDS011;5906;51.660;6.674;2022-12-08T11:41:50;10.10;;;9.10;;
11699;SDS011;5906;51.660;6.674;2022-12-08T11:44:41;12.80;;;9.33;;
11699;SDS011;5906;51.660;6.674;2022-12-08T11:47:42;15.63;;;9.50;;
11699;SDS011;5906;51.660;6.674;2022-12-08T11:54:01;10.63;;;9.17;;
11699;SDS011;5906;51.660;6.674;2022-12-08T11:57:11;11.80;;;8.13;;
11699;SDS011;5906;51.660;6.674;2022-12-08T12:00:08;10.03;;;8.63;;
11699;SDS011;5906;51.660;6.674;2022-12-08T12:03:06;11.67;;;9.33;;
11699;SDS011;5906;51.660;6.674;2022-12-08T12:19:00;8.60;;;7.67;;
11699;SDS011;5906;51.660;6.674;2022-12-08T12:21:51;7.40;;;6.73;;
11699;SDS011;5906;51.660;6.674;2022-12-08T12:24:43;7.73;;;7.03;;
11699;SDS011;5906;51.660;6.674;2022-12-08T12:27:37;7.57;;;6.80;;
11699;SDS011;5906;51.660;6.674;2022-12-08T12:30:26;7.90;;;7.10;;
11699;SDS011;5906;51.660;6.674;2022-12-08T12:33:19;8.67;;;6.90;;
11699;SDS011;5906;51.660;6.674;2022-12-08T12:36:08;7.03;;;6.00;;
11699;SDS011;5906;51.660;6.674;2022-12-08T12:38:56;7.50;;;6.37;;
11699;SDS011;5906;51.660;6.674;2022-12-08T12:41:53;6.67;;;6.10;;
11699;SDS011;5906;51.660;6.674;2022-12-08T12:44:42;6.93;;;6.30;;
11699;SDS011;5906;51.660;6.674;2022-12-08T12:50:49;6.70;;;6.20;;
11699;SDS011;5906;51.660;6.674;2022-12-08T12:57:34;6.60;;;6.00;;
11699;SDS011;5906;51.660;6.674;2022-12-08T13:02:52;16.10;;;11.50;;
11699;SDS011;5906;51.660;6.674;2022-12-08T13:05:51;16.60;;;12.60;;
11699;SDS011;5906;51.660;6.674;2022-12-08T13:08:39;15.80;;;12.50;;
11699;SDS011;5906;51.660;6.674;2022-12-08T13:11:43;11.63;;;9.30;;
11699;SDS011;5906;51.660;6.674;2022-12-08T13:14:36;12.60;;;10.60;;
11699;SDS011;5906;51.660;6.674;2022-12-08T13:17:32;13.53;;;10.37;;
11699;SDS011;5906;51.660;6.674;2022-12-08T13:20:23;13.77;;;10.40;;
11699;SDS011;5906;51.660;6.674;2022-12-08T13:23:25;9.03;;;8.00;;
11699;SDS011;5906;51.660;6.674;2022-12-08T13:26:22;7.23;;;6.50;;
11699;SDS011;5906;51.660;6.674;2022-12-08T13:29:24;8.93;;;8.03;;
11699;SDS011;5906;51.660;6.674;2022-12-08T13:34:59;10.40;;;9.30;;
11699;SDS011;5906;51.660;6.674;2022-12-08T13:37:48;9.73;;;8.73;;
11699;SDS011;5906;51.660;6.674;2022-12-08T13:40:40;11.90;;;9.67;;
11699;SDS011;5906;51.660;6.674;2022-12-08T13:47:09;11.37;;;8.00;;
11699;SDS011;5906;51.660;6.674;2022-12-08T13:50:24;9.87;;;8.70;;
11699;SDS011;5906;51.660;6.674;2022-12-08T13:53:47;10.70;;;8.50;;
11699;SDS011;5906;51.660;6.674;2022-12-08T13:57:22;12.40;;;11.10;;
11699;SDS011;5906;51.660;6.674;2022-12-08T14:00:15;12.50;;;10.00;;
11699;SDS011;5906;51.660;6.674;2022-12-08T14:03:07;12.13;;;9.90;;
11699;SDS011;5906;51.660;6.674;2022-12-08T14:05:58;12.07;;;9.80;;
11699;SDS011;5906;51.660;6.674;2022-12-08T14:08:59;12.63;;;10.27;;
11699;SDS011;5906;51.660;6.674;2022-12-08T14:15:06;14.87;;;12.03;;
11699;SDS011;5906;51.660;6.674;2022-12-08T14:17:58;16.10;;;12.00;;
11699;SDS011;5906;51.660;6.674;2022-12-08T14:20:46;15.63;;;11.53;;
11699;SDS011;5906;51.660;6.674;2022-12-08T14:24:08;15.80;;;11.80;;
11699;SDS011;5906;51.660;6.674;2022-12-08T14:26:58;15.57;;;12.00;;
11699;SDS011;5906;51.660;6.674;2022-12-08T14:29:52;15.87;;;11.50;;
11699;SDS011;5906;51.660;6.674;2022-12-08T14:32:53;15.67;;;10.23;;
11699;SDS011;5906;51.660;6.674;2022-12-08T14:35:41;20.43;;;13.37;;
11699;SDS011;5906;51.660;6.674;2022-12-08T14:38:34;12.83;;;10.60;;
11699;SDS011;5906;51.660;6.674;2022-12-08T14:41:26;18.90;;;13.17;;
11699;SDS011;5906;51.660;6.674;2022-12-08T14:44:21;14.30;;;11.20;;
11699;SDS011;5906;51.660;6.674;2022-12-08T14:47:10;14.47;;;11.50;;
11699;SDS011;5906;51.660;6.674;2022-12-08T14:50:04;17.27;;;13.50;;
11699;SDS011;5906;51.660;6.674;2022-12-08T14:53:25;20.00;;;13.07;;
11699;SDS011;5906;51.660;6.674;2022-12-08T14:56:38;19.43;;;14.27;;
11699;SDS011;5906;51.660;6.674;2022-12-08T14:59:32;24.30;;;16.03;;
11699;SDS011;5906;51.660;6.674;2022-12-08T15:02:24;22.37;;;16.00;;
11699;SDS011;5906;51.660;6.674;2022-12-08T15:05:17;23.47;;;16.57;;
11699;SDS011;5906;51.660;6.674;2022-12-08T15:08:08;24.30;;;16.93;;
11699;SDS011;5906;51.660;6.674;2022-12-08T15:14:26;27.50;;;16.20;;
11699;SDS011;5906;51.660;6.674;2022-12-08T15:20:38;22.40;;;14.60;;
11699;SDS011;5906;51.660;6.674;2022-12-08T15:23:42;21.17;;;15.63;;
11699;SDS011;5906;51.660;6.674;2022-12-08T15:26:40;19.00;;;14.43;;
11699;SDS011;5906;51.660;6.674;2022-12-08T15:29:30;20.40;;;14.87;;
11699;SDS011;5906;51.660;6.674;2022-12-08T15:32:19;24.33;;;15.67;;
11699;SDS011;5906;51.660;6.674;2022-12-08T15:35:11;29.10;;;18.40;;
11699;SDS011;5906;51.660;6.674;2022-12-08T15:38:00;23.57;;;16.23;;
11699;SDS011;5906;51.660;6.674;2022-12-08T15:40:47;20.67;;;14.77;;
11699;SDS011;5906;51.660;6.674;2022-12-08T15:43:34;23.90;;;15.30;;
11699;SDS011;5906;51.660;6.674;2022-12-08T15:46:21;28.47;;;17.47;;
11699;SDS011;5906;51.660;6.674;2022-12-08T15:49:15;26.90;;;17.83;;
11699;SDS011;5906;51.660;6.674;2022-12-08T15:52:05;30.53;;;18.33;;
11699;SDS011;5906;51.660;6.674;2022-12-08T15:54:58;26.90;;;17.90;;
11699;SDS011;5906;51.660;6.674;2022-12-08T15:57:47;32.97;;;18.90;;
11699;SDS011;5906;51.660;6.674;2022-12-08T16:00:56;30.70;;;21.10;;
11699;SDS011;5906;51.660;6.674;2022-12-08T16:03:44;28.80;;;19.70;;
11699;SDS011;5906;51.660;6.674;2022-12-08T16:06:52;24.53;;;17.43;;
11699;SDS011;5906;51.660;6.674;2022-12-08T16:09:59;26.70;;;18.07;;
11699;SDS011;5906;51.660;6.674;2022-12-08T16:12:46;33.37;;;23.30;;
11699;SDS011;5906;51.660;6.674;2022-12-08T16:16:12;30.63;;;20.67;;
11699;SDS011;5906;51.660;6.674;2022-12-08T16:19:07;29.63;;;20.17;;
11699;SDS011;5906;51.660;6.674;2022-12-08T16:21:59;30.60;;;19.33;;
11699;SDS011;5906;51.660;6.674;2022-12-08T16:25:06;29.57;;;20.30;;
11699;SDS011;5906;51.660;6.674;2022-12-08T16:28:09;30.20;;;20.57;;
11699;SDS011;5906;51.660;6.674;2022-12-08T16:31:16;32.13;;;22.30;;
11699;SDS011;5906;51.660;6.674;2022-12-08T16:34:08;30.40;;;19.73;;
11699;SDS011;5906;51.660;6.674;2022-12-08T16:36:55;32.00;;;20.33;;
11699;SDS011;5906;51.660;6.674;2022-12-08T16:39:42;27.40;;;19.20;;
11699;SDS011;5906;51.660;6.674;2022-12-08T16:42:32;30.27;;;20.17;;
11699;SDS011;5906;51.660;6.674;2022-12-08T16:45:27;31.07;;;21.53;;
11699;SDS011;5906;51.660;6.674;2022-12-08T16:48:15;27.20;;;17.87;;
11699;SDS011;5906;51.660;6.674;2022-12-08T16:51:02;27.97;;;19.53;;
11699;SDS011;5906;51.660;6.674;2022-12-08T16:53:54;30.13;;;17.67;;
11699;SDS011;5906;51.660;6.674;2022-12-08T16:56:42;32.57;;;18.57;;
11699;SDS011;5906;51.660;6.674;2022-12-08T16:59:29;27.27;;;16.90;;
11699;SDS011;5906;51.660;6.674;2022-12-08T17:02:16;28.43;;;19.30;;
11699;SDS011;5906;51.660;6.674;2022-12-08T17:05:03;27.37;;;18.13;;
11699;SDS011;5906;51.660;6.674;2022-12-08T17:07:51;28.43;;;19.47;;
11699;SDS011;5906;51.660;6.674;2022-12-08T17:10:39;28.83;;;19.10;;
11699;SDS011;5906;51.660;6.674;2022-12-08T17:13:27;32.10;;;18.73;;
11699;SDS011;5906;51.660;6.674;2022-12-08T17:16:15;29.03;;;17.47;;
11699;SDS011;5906;51.660;6.674;2022-12-08T17:19:04;29.60;;;20.07;;
11699;SDS011;5906;51.660;6.674;2022-12-08T17:21:51;23.70;;;16.40;;
11699;SDS011;5906;51.660;6.674;2022-12-08T17:24:38;26.10;;;18.90;;
11699;SDS011;5906;51.660;6.674;2022-12-08T17:27:25;27.97;;;17.60;;
11699;SDS011;5906;51.660;6.674;2022-12-08T17:30:13;31.03;;;19.33;;
11699;SDS011;5906;51.660;6.674;2022-12-08T17:33:01;32.00;;;18.80;;
11699;SDS011;5906;51.660;6.674;2022-12-08T17:35:48;32.33;;;21.60;;
11699;SDS011;5906;51.660;6.674;2022-12-08T17:38:37;29.00;;;20.93;;
11699;SDS011;5906;51.660;6.674;2022-12-08T17:41:24;31.53;;;18.70;;
11699;SDS011;5906;51.660;6.674;2022-12-08T17:44:12;26.67;;;17.43;;
11699;SDS011;5906;51.660;6.674;2022-12-08T17:47:03;27.77;;;18.30;;
11699;SDS011;5906;51.660;6.674;2022-12-08T17:49:50;31.67;;;20.00;;
11699;SDS011;5906;51.660;6.674;2022-12-08T17:52:37;34.30;;;20.40;;
11699;SDS011;5906;51.660;6.674;2022-12-08T17:55:25;34.57;;;21.90;;
11699;SDS011;5906;51.660;6.674;2022-12-08T17:58:12;32.27;;;19.70;;
11699;SDS011;5906;51.660;6.674;2022-12-08T18:00:59;30.67;;;19.53;;
11699;SDS011;5906;51.660;6.674;2022-12-08T18:03:46;29.10;;;19.90;;
11699;SDS011;5906;51.660;6.674;2022-12-08T18:06:33;29.00;;;19.53;;
11699;SDS011;5906;51.660;6.674;2022-12-08T18:09:22;31.13;;;19.80;;
11699;SDS011;5906;51.660;6.674;2022-12-08T18:12:10;29.23;;;19.20;;
11699;SDS011;5906;51.660;6.674;2022-12-08T18:14:57;26.30;;;18.27;;
11699;SDS011;5906;51.660;6.674;2022-12-08T18:17:45;34.60;;;20.00;;
11699;SDS011;5906;51.660;6.674;2022-12-08T18:20:33;30.10;;;18.23;;
11699;SDS011;5906;51.660;6.674;2022-12-08T18:23:20;27.47;;;18.27;;